createdAt,value
2023-02-06T00:00:11.376Z,-4.76
2023-02-06T00:02:39.516Z,-4.75
2023-02-06T00:05:07.793Z,-4.76
2023-02-06T00:07:35.913Z,-4.76
2023-02-06T00:10:04.281Z,-4.76
2023-02-06T00:12:32.248Z,-4.77
2023-02-06T00:15:00.220Z,-4.77
2023-02-06T00:17:28.393Z,-4.80
2023-02-06T00:19:56.257Z,-4.80
2023-02-06T00:22:24.235Z,-4.80
2023-02-06T00:24:52.201Z,-4.78
2023-02-06T00:27:20.176Z,-4.77
2023-02-06T00:29:48.342Z,-4.76
2023-02-06T00:32:16.511Z,-4.77
2023-02-06T00:34:44.491Z,-4.76
2023-02-06T00:37:12.459Z,-4.76
2023-02-06T00:39:40.839Z,-4.76
2023-02-06T00:42:08.810Z,-4.77
2023-02-06T00:44:36.779Z,-4.78
2023-02-06T00:47:04.640Z,-4.79
2023-02-06T00:49:32.513Z,-4.82
2023-02-06T00:52:00.487Z,-4.84
2023-02-06T00:54:28.553Z,-4.85
2023-02-06T00:56:58.363Z,-4.83
2023-02-06T00:59:26.337Z,-4.83
2023-02-06T01:01:54.505Z,-4.83
2023-02-06T01:04:22.676Z,-4.86
2023-02-06T01:06:50.656Z,-4.89
2023-02-06T01:09:18.716Z,-4.92
2023-02-06T01:11:46.686Z,-4.93
2023-02-06T01:14:16.089Z,-4.92
2023-02-06T01:16:44.531Z,-4.92
2023-02-06T01:19:12.969Z,-4.92
2023-02-06T01:21:40.922Z,-4.90
2023-02-06T01:24:08.880Z,-4.89
2023-02-06T01:26:36.857Z,-4.89
2023-02-06T01:29:04.928Z,-4.92
2023-02-06T01:31:33.034Z,-4.93
2023-02-06T01:34:01.271Z,-4.96
2023-02-06T01:36:29.441Z,-4.98
2023-02-06T01:38:57.969Z,-5.02
2023-02-06T01:41:26.019Z,-5.04
2023-02-06T01:44:11.379Z,-5.07
2023-02-06T01:46:40.687Z,-5.07
2023-02-06T01:49:09.985Z,-5.09
2023-02-06T01:51:38.772Z,-5.11
2023-02-06T01:54:07.523Z,-5.14
2023-02-06T01:56:40.134Z,-5.14
2023-02-06T01:59:08.409Z,-5.17
2023-02-06T02:01:36.373Z,-5.22
2023-02-06T02:04:05.994Z,-5.24
2023-02-06T02:06:34.482Z,-5.27
2023-02-06T02:09:03.267Z,-5.29
2023-02-06T02:11:36.866Z,-5.27
2023-02-06T02:14:06.781Z,-5.27
2023-02-06T02:16:40.785Z,-5.25
2023-02-06T02:19:14.798Z,-5.24
2023-02-06T02:22:01.818Z,-5.20
2023-02-06T02:24:36.038Z,-5.17
2023-02-06T02:27:13.531Z,-5.15
2023-02-06T02:29:41.406Z,-5.16
2023-02-06T02:32:09.366Z,-5.16
2023-02-06T02:34:55.963Z,-5.19
2023-02-06T02:37:39.296Z,-5.21
2023-02-06T02:40:08.312Z,-5.22
2023-02-06T02:42:48.633Z,-5.22
2023-02-06T02:45:21.014Z,-5.23
2023-02-06T02:47:55.131Z,-5.25
2023-02-06T02:50:23.409Z,-5.27
2023-02-06T02:52:52.922Z,-5.30
2023-02-06T02:55:23.234Z,-5.32
2023-02-06T02:57:59.295Z,-5.35
2023-02-06T03:00:27.262Z,-5.40
2023-02-06T03:02:56.354Z,-5.41
2023-02-06T03:05:25.460Z,-5.42
2023-02-06T03:07:56.399Z,-5.42
2023-02-06T03:10:34.089Z,-5.42
2023-02-06T03:13:17.827Z,-5.41
2023-02-06T03:15:57.191Z,-5.42
2023-02-06T03:18:28.207Z,-5.42
2023-02-06T03:20:57.402Z,-5.43
2023-02-06T03:23:29.166Z,-5.43
2023-02-06T03:26:00.411Z,-5.43
2023-02-06T03:28:32.574Z,-5.42
2023-02-06T03:31:02.905Z,-5.44
2023-02-06T03:33:34.355Z,-5.44
2023-02-06T03:36:04.375Z,-5.43
2023-02-06T03:38:32.752Z,-5.46
2023-02-06T03:41:01.520Z,-5.47
2023-02-06T03:43:30.421Z,-5.49
2023-02-06T03:46:04.783Z,-5.49
2023-02-06T03:48:32.726Z,-5.49
2023-02-06T03:51:04.065Z,-5.48
2023-02-06T03:53:33.465Z,-5.48
2023-02-06T03:56:06.735Z,-5.46
2023-02-06T03:58:34.627Z,-5.44
2023-02-06T04:01:04.376Z,-5.43
2023-02-06T04:03:32.517Z,-5.44
2023-02-06T04:06:00.503Z,-5.44
2023-02-06T04:08:28.570Z,-5.44
2023-02-06T04:10:56.523Z,-5.45
2023-02-06T04:13:24.512Z,-5.48
2023-02-06T04:15:52.578Z,-5.56
2023-02-06T04:18:20.443Z,-5.59
2023-02-06T04:20:48.411Z,-5.58
2023-02-06T04:23:16.582Z,-5.61
2023-02-06T04:25:44.550Z,-5.62
2023-02-06T04:28:12.531Z,-5.65
2023-02-06T04:30:40.839Z,-5.70
2023-02-06T04:33:08.963Z,-5.73
2023-02-06T04:35:37.026Z,-5.73
2023-02-06T04:38:04.997Z,-5.75
2023-02-06T04:40:32.875Z,-5.75
2023-02-06T04:43:00.856Z,-5.78
2023-02-06T04:45:28.813Z,-5.83
2023-02-06T04:47:58.533Z,-5.87
2023-02-06T04:50:31.462Z,-5.89
2023-02-06T04:52:59.556Z,-5.92
2023-02-06T04:55:27.958Z,-5.93
2023-02-06T04:57:55.856Z,-5.95
2023-02-06T05:00:24.082Z,-5.96
2023-02-06T05:02:52.023Z,-5.95
2023-02-06T05:05:20.144Z,-5.93
2023-02-06T05:07:48.109Z,-5.93
2023-02-06T05:10:15.977Z,-5.91
2023-02-06T05:12:44.152Z,-5.90
2023-02-06T05:15:12.223Z,-5.89
2023-02-06T05:17:40.293Z,-5.87
2023-02-06T05:20:08.882Z,-5.87
2023-02-06T05:22:36.842Z,-5.88
2023-02-06T05:25:04.994Z,-5.90
2023-02-06T05:27:32.825Z,-5.95
2023-02-06T05:30:00.758Z,-6.00
2023-02-06T05:32:29.031Z,-6.05
2023-02-06T05:34:56.897Z,-6.09
2023-02-06T05:37:24.876Z,-6.07
2023-02-06T05:39:53.041Z,-6.05
2023-02-06T05:42:21.007Z,-6.02
2023-02-06T05:44:48.979Z,-6.00
2023-02-06T05:47:17.049Z,-5.99
2023-02-06T05:49:45.108Z,-5.99
2023-02-06T05:52:13.095Z,-6.07
2023-02-06T05:54:41.013Z,-6.18
2023-02-06T05:57:08.839Z,-6.26
2023-02-06T05:59:37.207Z,-6.32
2023-02-06T06:02:05.046Z,-6.41
2023-02-06T06:04:33.109Z,-6.52
2023-02-06T06:07:01.116Z,-6.59
2023-02-06T06:09:29.084Z,-6.65
2023-02-06T06:11:56.956Z,-6.69
2023-02-06T06:14:24.855Z,-6.71
2023-02-06T06:16:53.097Z,-6.70
2023-02-06T06:19:21.045Z,-6.69
2023-02-06T06:21:49.131Z,-6.67
2023-02-06T06:24:17.299Z,-6.63
2023-02-06T06:26:45.281Z,-6.61
2023-02-06T06:29:13.145Z,-6.58
2023-02-06T06:31:41.229Z,-6.56
2023-02-06T06:34:09.295Z,-6.53
2023-02-06T06:36:37.255Z,-6.51
2023-02-06T06:39:05.225Z,-6.44
2023-02-06T06:41:33.187Z,-6.36
2023-02-06T06:44:01.225Z,-6.25
2023-02-06T06:46:29.544Z,-6.12
2023-02-06T06:48:57.390Z,-6.03
2023-02-06T06:51:27.014Z,-5.87
2023-02-06T06:53:55.297Z,-5.72
2023-02-06T06:56:23.675Z,-5.69
2023-02-06T06:58:51.776Z,-5.64
2023-02-06T07:01:19.985Z,-5.58
2023-02-06T07:03:48.604Z,-5.55
2023-02-06T07:06:17.910Z,-5.49
2023-02-06T07:08:45.876Z,-5.37
2023-02-06T07:11:14.842Z,-5.25
2023-02-06T07:13:43.564Z,-5.11
2023-02-06T07:16:12.238Z,-4.94
2023-02-06T07:18:41.544Z,-4.75
2023-02-06T07:21:09.806Z,-4.63
2023-02-06T07:23:38.602Z,-4.53
2023-02-06T07:26:06.988Z,-4.42
2023-02-06T07:28:35.162Z,-4.31
2023-02-06T07:31:04.455Z,-4.27
2023-02-06T07:33:32.832Z,-4.29
2023-02-06T07:36:03.843Z,-4.21
2023-02-06T07:38:32.238Z,-4.10
2023-02-06T07:41:01.661Z,-4.03
2023-02-06T07:43:30.353Z,-3.98
2023-02-06T07:45:58.965Z,-3.73
2023-02-06T07:48:27.106Z,-3.50
2023-02-06T07:50:55.071Z,-3.48
2023-02-06T07:53:23.139Z,-3.58
2023-02-06T07:55:51.421Z,-3.42
2023-02-06T07:58:19.491Z,-3.19
2023-02-06T08:00:47.713Z,-3.17
2023-02-06T08:03:15.731Z,-3.11
2023-02-06T08:05:43.809Z,-3.01
2023-02-06T08:08:11.673Z,-3.02
2023-02-06T08:10:40.162Z,-3.08
2023-02-06T08:13:08.743Z,-3.09
2023-02-06T08:15:36.970Z,-3.35
2023-02-06T08:18:05.138Z,-3.47
2023-02-06T08:20:33.365Z,-3.51
2023-02-06T08:23:01.330Z,-3.68
2023-02-06T08:25:29.204Z,-3.68
2023-02-06T08:27:57.204Z,-3.62
2023-02-06T08:30:25.289Z,-3.58
2023-02-06T08:32:53.313Z,-3.64
2023-02-06T08:35:21.487Z,-3.64
2023-02-06T08:37:49.346Z,-3.46
2023-02-06T08:40:17.381Z,-3.18
2023-02-06T08:42:49.360Z,-2.64
2023-02-06T08:45:17.354Z,-2.18
2023-02-06T08:47:45.320Z,-1.62
2023-02-06T08:50:13.400Z,-0.89
2023-02-06T08:52:41.470Z,-0.26
2023-02-06T08:55:09.299Z,0.43
2023-02-06T08:57:37.407Z,1.14
2023-02-06T09:00:05.677Z,1.64
2023-02-06T09:02:34.298Z,1.85
2023-02-06T09:05:02.344Z,2.03
2023-02-06T09:07:31.020Z,2.03
2023-02-06T09:09:58.875Z,2.06
2023-02-06T09:12:26.856Z,1.29
2023-02-06T09:14:54.839Z,0.64
2023-02-06T09:17:22.687Z,0.96
2023-02-06T09:19:50.658Z,1.29
2023-02-06T09:22:18.627Z,1.14
2023-02-06T09:24:46.598Z,0.82
2023-02-06T09:27:15.688Z,0.18
2023-02-06T09:29:43.555Z,-0.25
2023-02-06T09:32:11.394Z,-0.38
2023-02-06T09:34:39.502Z,-0.37
2023-02-06T09:37:07.566Z,-0.34
2023-02-06T09:39:35.537Z,-0.31
2023-02-06T09:42:05.860Z,-0.36
2023-02-06T09:44:42.430Z,-0.57
2023-02-06T09:47:30.676Z,-0.68
2023-02-06T09:50:09.595Z,-0.65
2023-02-06T09:52:56.177Z,-0.57
2023-02-06T09:55:36.736Z,-0.53
2023-02-06T09:58:20.713Z,-0.59
2023-02-06T10:00:48.585Z,-0.62
2023-02-06T10:03:16.451Z,-0.73
2023-02-06T10:05:47.286Z,-0.83
2023-02-06T10:08:24.295Z,-0.77
2023-02-06T10:10:55.213Z,-0.58
2023-02-06T10:13:41.816Z,-0.44
2023-02-06T10:16:28.807Z,-0.30
2023-02-06T10:18:59.558Z,-0.18
2023-02-06T10:21:34.048Z,-0.21
2023-02-06T10:24:08.623Z,-0.16
2023-02-06T10:26:38.423Z,-0.07
2023-02-06T10:29:11.101Z,-0.02
2023-02-06T10:31:50.968Z,0.00
2023-02-06T10:34:25.008Z,0.03
2023-02-06T10:36:56.004Z,0.06
2023-02-06T10:39:39.376Z,0.09
2023-02-06T10:42:07.204Z,0.14
2023-02-06T10:44:35.066Z,0.14
2023-02-06T10:47:09.010Z,0.13
2023-02-06T10:49:40.933Z,0.11
2023-02-06T10:52:18.807Z,-0.03
2023-02-06T10:54:52.263Z,-0.19
2023-02-06T10:57:30.277Z,-0.16
2023-02-06T11:00:00.653Z,-0.26
2023-02-06T11:03:06.317Z,-0.31
2023-02-06T11:05:35.558Z,-0.39
2023-02-06T11:08:14.059Z,-0.44
2023-02-06T11:10:42.613Z,-0.47
2023-02-06T11:13:15.700Z,-0.42
2023-02-06T11:15:52.592Z,-0.32
2023-02-06T11:18:22.397Z,-0.18
2023-02-06T11:20:50.817Z,0.00
2023-02-06T11:23:18.826Z,0.16
2023-02-06T11:25:49.587Z,0.29
2023-02-06T11:28:19.340Z,0.39
2023-02-06T11:31:01.609Z,0.46
2023-02-06T11:33:36.148Z,0.45
2023-02-06T11:36:05.349Z,0.51
2023-02-06T11:38:34.415Z,0.58
2023-02-06T11:41:04.949Z,0.65
2023-02-06T11:43:45.963Z,0.73
2023-02-06T11:46:19.563Z,0.74
2023-02-06T11:48:47.599Z,0.72
2023-02-06T11:51:17.046Z,0.78
2023-02-06T11:54:02.277Z,0.53
2023-02-06T11:56:31.873Z,0.54
2023-02-06T11:59:18.275Z,0.53
2023-02-06T12:01:47.166Z,0.60
2023-02-06T12:04:23.934Z,0.56
2023-02-06T12:06:54.573Z,0.62
2023-02-06T12:09:22.662Z,0.56
2023-02-06T12:11:50.624Z,0.49
2023-02-06T12:14:24.353Z,0.28
2023-02-06T12:16:52.959Z,0.12
2023-02-06T12:19:31.933Z,-0.03
2023-02-06T12:22:12.655Z,0.02
2023-02-06T12:24:46.603Z,0.14
2023-02-06T12:27:20.854Z,0.35
2023-02-06T12:29:54.732Z,0.65
2023-02-06T12:32:25.461Z,0.96
2023-02-06T12:34:55.595Z,1.54
2023-02-06T12:37:25.401Z,2.27
2023-02-06T12:39:53.468Z,2.86
2023-02-06T12:42:47.539Z,3.69
2023-02-06T12:45:24.938Z,4.51
2023-02-06T12:47:52.782Z,4.97
2023-02-06T12:50:27.201Z,5.59
2023-02-06T12:53:16.175Z,6.13
2023-02-06T12:55:56.544Z,6.17
2023-02-06T12:58:36.803Z,6.31
2023-02-06T13:01:27.598Z,5.88
2023-02-06T13:04:00.493Z,5.11
2023-02-06T13:06:51.519Z,3.99
2023-02-06T13:09:35.034Z,3.32
2023-02-06T13:12:13.942Z,3.25
2023-02-06T13:14:57.184Z,2.62
2023-02-06T13:17:36.639Z,2.35
2023-02-06T13:20:09.246Z,2.11
2023-02-06T13:22:45.191Z,2.06
2023-02-06T13:25:31.853Z,2.01
2023-02-06T13:28:06.303Z,1.68
2023-02-06T13:30:34.309Z,1.49
2023-02-06T13:33:20.253Z,1.48
2023-02-06T13:35:58.947Z,1.35
2023-02-06T13:38:28.887Z,1.13
2023-02-06T13:41:14.994Z,0.98
2023-02-06T13:43:56.058Z,1.01
2023-02-06T13:46:31.346Z,1.00
2023-02-06T13:49:17.900Z,1.04
2023-02-06T13:51:58.632Z,1.48
2023-02-06T13:54:29.612Z,1.93
2023-02-06T13:57:00.753Z,1.74
2023-02-06T13:59:32.510Z,1.59
2023-02-06T14:02:11.863Z,1.45
2023-02-06T14:04:40.124Z,1.51
2023-02-06T14:07:08.089Z,1.43
2023-02-06T14:09:46.399Z,1.46
2023-02-06T14:12:34.952Z,0.83
2023-02-06T14:15:08.891Z,0.79
2023-02-06T14:17:39.644Z,0.56
2023-02-06T14:20:29.891Z,0.59
2023-02-06T14:23:19.152Z,0.29
2023-02-06T14:25:57.870Z,0.25
2023-02-06T14:28:40.893Z,0.22
2023-02-06T14:31:18.071Z,0.28
2023-02-06T14:33:46.154Z,0.28
2023-02-06T14:36:29.593Z,0.16
2023-02-06T14:39:16.598Z,0.16
2023-02-06T14:41:44.668Z,0.06
2023-02-06T14:44:20.222Z,-0.05
2023-02-06T14:46:48.652Z,-0.14
2023-02-06T14:49:27.230Z,-0.20
2023-02-06T14:51:55.293Z,-0.36
2023-02-06T14:54:31.560Z,-0.31
2023-02-06T14:57:04.748Z,-0.33
2023-02-06T14:59:32.919Z,-0.36
2023-02-06T15:02:12.666Z,-0.51
2023-02-06T15:04:50.358Z,-0.53
2023-02-06T15:07:27.748Z,-0.56
2023-02-06T15:10:01.905Z,-0.70
2023-02-06T15:12:30.284Z,-0.76
2023-02-06T15:15:05.431Z,-0.89
2023-02-06T15:17:34.573Z,-0.96
2023-02-06T15:20:34.994Z,-0.93
2023-02-06T15:23:18.071Z,-0.96
2023-02-06T15:26:03.612Z,-1.02
2023-02-06T15:28:33.124Z,-1.08
2023-02-06T15:31:01.878Z,-1.18
2023-02-06T15:33:31.655Z,-1.23
2023-02-06T15:36:00.819Z,-1.25
2023-02-06T15:38:31.050Z,-1.34
2023-02-06T15:41:01.259Z,-1.46
2023-02-06T15:43:29.537Z,-1.52
2023-02-06T15:45:58.799Z,-1.54
2023-02-06T15:48:36.024Z,-1.59
2023-02-06T15:51:19.360Z,-1.65
2023-02-06T15:53:48.812Z,-1.75
2023-02-06T15:56:20.526Z,-1.85
2023-02-06T15:58:50.014Z,-1.87
2023-02-06T16:01:19.390Z,-1.90
2023-02-06T16:03:53.340Z,-1.98
2023-02-06T16:06:22.428Z,-1.99
2023-02-06T16:08:52.652Z,-2.05
2023-02-06T16:11:39.868Z,-2.06
2023-02-06T16:14:17.162Z,-2.10
2023-02-06T16:16:55.515Z,-2.13
2023-02-06T16:19:41.974Z,-2.17
2023-02-06T16:22:16.124Z,-2.18
2023-02-06T16:24:44.508Z,-2.17
2023-02-06T16:27:20.627Z,-2.13
2023-02-06T16:29:50.325Z,-2.09
2023-02-06T16:32:21.788Z,-2.06
2023-02-06T16:34:50.168Z,-2.03
2023-02-06T16:37:18.123Z,-2.01
2023-02-06T16:39:46.583Z,-2.00
2023-02-06T16:42:17.652Z,-1.99
2023-02-06T16:44:49.670Z,-1.98
2023-02-06T16:47:19.328Z,-1.97
2023-02-06T16:49:52.277Z,-1.96
2023-02-06T16:52:31.282Z,-1.95
2023-02-06T16:54:59.490Z,-1.93
2023-02-06T16:57:35.279Z,-1.93
2023-02-06T17:00:05.066Z,-1.95
2023-02-06T17:02:33.349Z,-1.97
2023-02-06T17:05:01.979Z,-1.99
2023-02-06T17:07:31.856Z,-2.02
2023-02-06T17:09:59.821Z,-2.05
2023-02-06T17:12:28.500Z,-2.08
2023-02-06T17:14:56.582Z,-2.09
2023-02-06T17:17:24.655Z,-2.09
2023-02-06T17:19:54.121Z,-2.12
2023-02-06T17:22:22.230Z,-2.16
2023-02-06T17:24:50.195Z,-2.16
2023-02-06T17:27:21.030Z,-2.16
2023-02-06T17:29:49.620Z,-2.16
2023-02-06T17:32:22.409Z,-2.17
2023-02-06T17:34:54.118Z,-2.17
2023-02-06T17:37:22.540Z,-2.15
2023-02-06T17:39:51.419Z,-2.14
2023-02-06T17:42:19.769Z,-2.15
2023-02-06T17:44:47.789Z,-2.16
2023-02-06T17:47:15.670Z,-2.17
2023-02-06T17:49:43.538Z,-2.20
2023-02-06T17:52:11.397Z,-2.23
2023-02-06T17:54:39.434Z,-2.27
2023-02-06T17:57:07.529Z,-2.30
2023-02-06T17:59:35.498Z,-2.32
2023-02-06T18:02:03.567Z,-2.33
2023-02-06T18:04:32.060Z,-2.33
2023-02-06T18:07:00.108Z,-2.33
2023-02-06T18:09:28.077Z,-2.37
2023-02-06T18:11:56.051Z,-2.40
2023-02-06T18:14:24.122Z,-2.42
2023-02-06T18:16:52.088Z,-2.46
2023-02-06T18:19:24.166Z,-2.50
2023-02-06T18:21:52.249Z,-2.52
2023-02-06T18:24:20.195Z,-2.52
2023-02-06T18:26:48.169Z,-2.52
2023-02-06T18:29:16.235Z,-2.52
2023-02-06T18:31:44.224Z,-2.54
2023-02-06T18:34:12.586Z,-2.56
2023-02-06T18:36:40.859Z,-2.58
2023-02-06T18:39:08.834Z,-2.60
2023-02-06T18:41:55.229Z,-2.60
2023-02-06T18:44:24.851Z,-2.59
2023-02-06T18:46:53.221Z,-2.58
2023-02-06T18:49:21.187Z,-2.58
2023-02-06T18:51:49.155Z,-2.58
2023-02-06T18:54:17.116Z,-2.58
2023-02-06T18:56:45.704Z,-2.59
2023-02-06T18:59:13.574Z,-2.60
2023-02-06T19:01:43.933Z,-2.62
2023-02-06T19:04:12.069Z,-2.63
2023-02-06T19:06:42.295Z,-2.65
2023-02-06T19:09:12.205Z,-2.70
2023-02-06T19:11:41.199Z,-2.76
2023-02-06T19:14:11.424Z,-2.80
2023-02-06T19:16:40.845Z,-2.82
2023-02-06T19:19:09.719Z,-2.86
2023-02-06T19:21:38.513Z,-2.89
2023-02-06T19:24:06.758Z,-2.90
2023-02-06T19:26:34.761Z,-2.93
2023-02-06T19:29:03.041Z,-2.95
2023-02-06T19:31:32.139Z,-2.97
2023-02-06T19:34:00.915Z,-2.99
2023-02-06T19:36:30.018Z,-3.01
2023-02-06T19:38:59.608Z,-3.05
2023-02-06T19:41:29.125Z,-3.08
2023-02-06T19:43:58.013Z,-3.11
2023-02-06T19:46:26.810Z,-3.12
2023-02-06T19:48:55.330Z,-3.15
2023-02-06T19:51:25.091Z,-3.17
2023-02-06T19:53:53.610Z,-3.20
2023-02-06T19:56:26.145Z,-3.24
2023-02-06T19:58:55.135Z,-3.31
2023-02-06T20:01:23.377Z,-3.38
2023-02-06T20:03:51.590Z,-3.43
2023-02-06T20:06:19.658Z,-3.48
2023-02-06T20:08:47.579Z,-3.52
2023-02-06T20:11:17.548Z,-3.57
2023-02-06T20:13:47.461Z,-3.63
2023-02-06T20:16:16.894Z,-3.66
2023-02-06T20:18:45.189Z,-3.70
2023-02-06T20:21:21.298Z,-3.76
2023-02-06T20:23:52.652Z,-3.83
2023-02-06T20:26:21.033Z,-3.89
2023-02-06T20:28:49.097Z,-3.93
2023-02-06T20:31:17.370Z,-3.96
2023-02-06T20:33:45.774Z,-3.98
2023-02-06T20:36:16.390Z,-4.00
2023-02-06T20:38:48.697Z,-4.03
2023-02-06T20:41:17.349Z,-4.09
2023-02-06T20:43:47.975Z,-4.13
2023-02-06T20:46:17.579Z,-4.17
2023-02-06T20:48:46.222Z,-4.18
2023-02-06T20:51:14.758Z,-4.21
2023-02-06T20:53:42.715Z,-4.28
2023-02-06T20:56:11.874Z,-4.31
2023-02-06T20:58:39.877Z,-4.34
2023-02-06T21:01:17.302Z,-4.37
2023-02-06T21:03:46.163Z,-4.40
2023-02-06T21:06:14.434Z,-4.42
2023-02-06T21:08:42.891Z,-4.53
2023-02-06T21:11:10.953Z,-4.59
2023-02-06T21:13:41.950Z,-4.64
2023-02-06T21:16:13.387Z,-4.70
2023-02-06T21:18:42.785Z,-4.74
2023-02-06T21:21:12.809Z,-4.79
2023-02-06T21:23:41.775Z,-4.82
2023-02-06T21:26:10.706Z,-4.83
2023-02-06T21:28:39.476Z,-4.86
2023-02-06T21:31:09.562Z,-4.90
2023-02-06T21:33:37.771Z,-4.93
2023-02-06T21:36:07.599Z,-4.95
2023-02-06T21:38:36.162Z,-5.00
2023-02-06T21:41:05.264Z,-5.04
2023-02-06T21:43:33.568Z,-5.09
2023-02-06T21:46:02.227Z,-5.14
2023-02-06T21:48:30.616Z,-5.21
2023-02-06T21:50:58.677Z,-5.27
2023-02-06T21:53:26.749Z,-5.30
2023-02-06T21:55:55.029Z,-5.32
2023-02-06T21:58:22.992Z,-5.34
2023-02-06T22:00:50.968Z,-5.38
2023-02-06T22:03:19.693Z,-5.39
2023-02-06T22:05:47.614Z,-5.40
2023-02-06T22:08:15.629Z,-5.46
2023-02-06T22:10:43.661Z,-5.48
2023-02-06T22:13:11.562Z,-5.51
2023-02-06T22:15:39.848Z,-5.55
2023-02-06T22:18:10.233Z,-5.60
2023-02-06T22:20:38.093Z,-5.62
2023-02-06T22:23:05.983Z,-5.66
2023-02-06T22:25:33.934Z,-5.72
2023-02-06T22:28:01.940Z,-5.77
2023-02-06T22:30:29.997Z,-5.80
2023-02-06T22:32:57.936Z,-5.82
2023-02-06T22:35:26.011Z,-5.84
2023-02-06T22:37:53.840Z,-5.83
2023-02-06T22:40:21.942Z,-5.80
2023-02-06T22:42:49.916Z,-5.77
2023-02-06T22:45:17.987Z,-5.73
2023-02-06T22:47:45.926Z,-5.66
2023-02-06T22:50:14.022Z,-5.61
2023-02-06T22:53:00.936Z,-5.58
2023-02-06T22:55:48.779Z,-5.56
2023-02-06T22:58:16.745Z,-5.50
2023-02-06T23:00:44.578Z,-5.43
2023-02-06T23:03:12.591Z,-5.41
2023-02-06T23:05:40.549Z,-5.39
2023-02-06T23:08:08.524Z,-5.37
2023-02-06T23:10:36.493Z,-5.38
2023-02-06T23:13:05.185Z,-5.41
2023-02-06T23:15:33.147Z,-5.47
2023-02-06T23:18:01.023Z,-5.47
2023-02-06T23:20:28.991Z,-5.47
2023-02-06T23:22:56.954Z,-5.47
2023-02-06T23:25:25.026Z,-5.52
2023-02-06T23:27:53.023Z,-5.60
2023-02-06T23:30:21.232Z,-5.63
2023-02-06T23:32:49.145Z,-5.67
2023-02-06T23:35:17.523Z,-5.75
2023-02-06T23:37:45.491Z,-5.82
2023-02-06T23:40:13.449Z,-5.89
2023-02-06T23:42:41.311Z,-5.98
2023-02-06T23:45:09.524Z,-6.07
2023-02-06T23:47:37.569Z,-6.12
2023-02-06T23:50:05.722Z,-6.19
2023-02-06T23:52:33.509Z,-6.25
2023-02-06T23:55:01.470Z,-6.29
2023-02-06T23:57:30.573Z,-6.31
2023-02-06T23:59:58.437Z,-6.34
